sensor_id;sensor_type;location;lat;lon;timestamp;pressure;altitude;pressure_sealevel;temperature
8362;BMP180;4218;48.326;14.304;2024-03-06T00:25:15;232397.00;;;235.00
8362;BMP180;4218;48.326;14.304;2024-03-06T00:27:49;232397.00;;;235.00
8362;BMP180;4218;48.326;14.304;2024-03-06T00:30:20;232397.00;;;235.00
8362;BMP180;4218;48.326;14.304;2024-03-06T00:33:16;232397.00;;;235.00
8362;BMP180;4218;48.326;14.304;2024-03-06T00:35:56;232397.00;;;235.00
8362;BMP180;4218;48.326;14.304;2024-03-06T01:54:24;232397.00;;;235.00
8362;BMP180;4218;48.326;14.304;2024-03-06T01:57:06;232397.00;;;235.00
8362;BMP180;4218;48.326;14.304;2024-03-06T01:59:42;232397.00;;;235.00
8362;BMP180;4218;48.326;14.304;2024-03-06T02:02:28;232397.00;;;235.00
8362;BMP180;4218;48.326;14.304;2024-03-06T02:04:56;232397.00;;;235.00
8362;BMP180;4218;48.326;14.304;2024-03-06T02:07:25;232397.00;;;235.00
8362;BMP180;4218;48.326;14.304;2024-03-06T02:09:54;232397.00;;;235.00
8362;BMP180;4218;48.326;14.304;2024-03-06T02:12:40;232397.00;;;235.00
8362;BMP180;4218;48.326;14.304;2024-03-06T02:15:08;232397.00;;;235.00
8362;BMP180;4218;48.326;14.304;2024-03-06T02:17:40;232397.00;;;235.00
8362;BMP180;4218;48.326;14.304;2024-03-06T02:20:30;232397.00;;;235.00
8362;BMP180;4218;48.326;14.304;2024-03-06T02:23:03;232397.00;;;235.00
8362;BMP180;4218;48.326;14.304;2024-03-06T02:25:39;232397.00;;;235.00
8362;BMP180;4218;48.326;14.304;2024-03-06T02:28:23;232397.00;;;235.00
8362;BMP180;4218;48.326;14.304;2024-03-06T02:30:58;232397.00;;;235.00
8362;BMP180;4218;48.326;14.304;2024-03-06T02:33:30;232397.00;;;235.00
8362;BMP180;4218;48.326;14.304;2024-03-06T02:39:11;232397.00;;;235.00
8362;BMP180;4218;48.326;14.304;2024-03-06T02:41:39;232397.00;;;235.00
8362;BMP180;4218;48.326;14.304;2024-03-06T02:44:15;232397.00;;;235.00
8362;BMP180;4218;48.326;14.304;2024-03-06T02:46:47;232397.00;;;235.00
8362;BMP180;4218;48.326;14.304;2024-03-06T02:49:15;232397.00;;;235.00
8362;BMP180;4218;48.326;14.304;2024-03-06T02:51:42;232397.00;;;235.00
8362;BMP180;4218;48.326;14.304;2024-03-06T02:54:14;232397.00;;;235.00
8362;BMP180;4218;48.326;14.304;2024-03-06T02:56:41;232397.00;;;235.00
8362;BMP180;4218;48.326;14.304;2024-03-06T02:59:10;232397.00;;;235.00
8362;BMP180;4218;48.326;14.304;2024-03-06T03:01:44;232397.00;;;235.00
8362;BMP180;4218;48.326;14.304;2024-03-06T03:04:10;232397.00;;;235.00
8362;BMP180;4218;48.326;14.304;2024-03-06T03:06:39;232397.00;;;235.00
8362;BMP180;4218;48.326;14.304;2024-03-06T03:09:07;232397.00;;;235.00
8362;BMP180;4218;48.326;14.304;2024-03-06T03:11:42;232397.00;;;235.00
8362;BMP180;4218;48.326;14.304;2024-03-06T03:14:11;232397.00;;;235.00
8362;BMP180;4218;48.326;14.304;2024-03-06T03:16:40;232397.00;;;235.00
8362;BMP180;4218;48.326;14.304;2024-03-06T03:19:13;232397.00;;;235.00
8362;BMP180;4218;48.326;14.304;2024-03-06T03:21:44;232397.00;;;235.00
8362;BMP180;4218;48.326;14.304;2024-03-06T03:24:14;232397.00;;;235.00
8362;BMP180;4218;48.326;14.304;2024-03-06T03:26:40;232397.00;;;235.00
8362;BMP180;4218;48.326;14.304;2024-03-06T03:29:09;232397.00;;;235.00
8362;BMP180;4218;48.326;14.304;2024-03-06T03:31:35;232397.00;;;235.00
8362;BMP180;4218;48.326;14.304;2024-03-06T03:34:06;232397.00;;;235.00
8362;BMP180;4218;48.326;14.304;2024-03-06T03:36:53;232397.00;;;235.00
8362;BMP180;4218;48.326;14.304;2024-03-06T03:39:30;232397.00;;;235.00
8362;BMP180;4218;48.326;14.304;2024-03-06T03:41:57;232397.00;;;235.00
8362;BMP180;4218;48.326;14.304;2024-03-06T03:44:24;232397.00;;;235.00
8362;BMP180;4218;48.326;14.304;2024-03-06T03:46:50;232397.00;;;235.00
8362;BMP180;4218;48.326;14.304;2024-03-06T03:49:18;232397.00;;;235.00
8362;BMP180;4218;48.326;14.304;2024-03-06T03:51:45;232397.00;;;235.00
8362;BMP180;4218;48.326;14.304;2024-03-06T03:54:10;232397.00;;;235.00
8362;BMP180;4218;48.326;14.304;2024-03-06T03:56:41;232397.00;;;235.00
8362;BMP180;4218;48.326;14.304;2024-03-06T03:59:10;232397.00;;;235.00
8362;BMP180;4218;48.326;14.304;2024-03-06T04:01:41;232397.00;;;235.00
8362;BMP180;4218;48.326;14.304;2024-03-06T04:04:10;232397.00;;;235.00
8362;BMP180;4218;48.326;14.304;2024-03-06T04:06:36;232397.00;;;235.00
8362;BMP180;4218;48.326;14.304;2024-03-06T04:09:02;232397.00;;;235.00
8362;BMP180;4218;48.326;14.304;2024-03-06T04:11:33;232397.00;;;235.00
8362;BMP180;4218;48.326;14.304;2024-03-06T04:14:01;232397.00;;;235.00
8362;BMP180;4218;48.326;14.304;2024-03-06T04:16:29;232397.00;;;235.00
8362;BMP180;4218;48.326;14.304;2024-03-06T04:19:00;232397.00;;;235.00
8362;BMP180;4218;48.326;14.304;2024-03-06T04:21:28;232397.00;;;235.00
8362;BMP180;4218;48.326;14.304;2024-03-06T04:23:58;232397.00;;;235.00
8362;BMP180;4218;48.326;14.304;2024-03-06T04:26:23;232397.00;;;235.00
8362;BMP180;4218;48.326;14.304;2024-03-06T04:28:52;232397.00;;;235.00
8362;BMP180;4218;48.326;14.304;2024-03-06T04:31:18;232397.00;;;235.00
8362;BMP180;4218;48.326;14.304;2024-03-06T04:33:48;232397.00;;;235.00
8362;BMP180;4218;48.326;14.304;2024-03-06T04:36:22;232397.00;;;235.00
8362;BMP180;4218;48.326;14.304;2024-03-06T04:38:48;232397.00;;;235.00
8362;BMP180;4218;48.326;14.304;2024-03-06T04:41:14;232397.00;;;235.00
8362;BMP180;4218;48.326;14.304;2024-03-06T04:43:49;232397.00;;;235.00
8362;BMP180;4218;48.326;14.304;2024-03-06T04:46:18;232397.00;;;235.00
8362;BMP180;4218;48.326;14.304;2024-03-06T04:48:52;232397.00;;;235.00
8362;BMP180;4218;48.326;14.304;2024-03-06T04:51:20;232397.00;;;235.00
8362;BMP180;4218;48.326;14.304;2024-03-06T04:53:53;232397.00;;;235.00
8362;BMP180;4218;48.326;14.304;2024-03-06T04:56:18;232397.00;;;235.00
8362;BMP180;4218;48.326;14.304;2024-03-06T04:58:46;232397.00;;;235.00
8362;BMP180;4218;48.326;14.304;2024-03-06T05:01:12;232397.00;;;235.00
8362;BMP180;4218;48.326;14.304;2024-03-06T05:03:54;232397.00;;;235.00
8362;BMP180;4218;48.326;14.304;2024-03-06T05:06:22;232397.00;;;235.00
8362;BMP180;4218;48.326;14.304;2024-03-06T05:08:52;232397.00;;;235.00
8362;BMP180;4218;48.326;14.304;2024-03-06T05:11:18;232397.00;;;235.00
8362;BMP180;4218;48.326;14.304;2024-03-06T05:13:43;232397.00;;;235.00
8362;BMP180;4218;48.326;14.304;2024-03-06T05:16:11;232397.00;;;235.00
8362;BMP180;4218;48.326;14.304;2024-03-06T05:18:37;232397.00;;;235.00
8362;BMP180;4218;48.326;14.304;2024-03-06T05:21:18;232397.00;;;235.00
8362;BMP180;4218;48.326;14.304;2024-03-06T05:23:49;232397.00;;;235.00
8362;BMP180;4218;48.326;14.304;2024-03-06T05:26:16;232397.00;;;235.00
8362;BMP180;4218;48.326;14.304;2024-03-06T05:28:43;232397.00;;;235.00
8362;BMP180;4218;48.326;14.304;2024-03-06T05:31:22;232397.00;;;235.00
8362;BMP180;4218;48.326;14.304;2024-03-06T05:33:49;232397.00;;;235.00
8362;BMP180;4218;48.326;14.304;2024-03-06T05:36:18;232397.00;;;235.00
8362;BMP180;4218;48.326;14.304;2024-03-06T05:38:45;232397.00;;;235.00
8362;BMP180;4218;48.326;14.304;2024-03-06T05:41:16;232397.00;;;235.00
8362;BMP180;4218;48.326;14.304;2024-03-06T05:43:43;232397.00;;;235.00
8362;BMP180;4218;48.326;14.304;2024-03-06T05:46:32;232397.00;;;235.00
8362;BMP180;4218;48.326;14.304;2024-03-06T05:48:58;232397.00;;;235.00
8362;BMP180;4218;48.326;14.304;2024-03-06T05:51:32;232397.00;;;235.00
8362;BMP180;4218;48.326;14.304;2024-03-06T05:54:03;232397.00;;;235.00
8362;BMP180;4218;48.326;14.304;2024-03-06T05:56:36;232397.00;;;235.00
8362;BMP180;4218;48.326;14.304;2024-03-06T05:59:18;232397.00;;;235.00
8362;BMP180;4218;48.326;14.304;2024-03-06T06:01:53;232397.00;;;235.00
8362;BMP180;4218;48.326;14.304;2024-03-06T06:04:30;232397.00;;;235.00
8362;BMP180;4218;48.326;14.304;2024-03-06T06:06:57;232397.00;;;235.00
8362;BMP180;4218;48.326;14.304;2024-03-06T06:09:35;232397.00;;;235.00
8362;BMP180;4218;48.326;14.304;2024-03-06T06:12:04;232397.00;;;235.00
8362;BMP180;4218;48.326;14.304;2024-03-06T06:14:31;232397.00;;;235.00
8362;BMP180;4218;48.326;14.304;2024-03-06T06:16:58;232397.00;;;235.00
8362;BMP180;4218;48.326;14.304;2024-03-06T06:20:06;232397.00;;;235.00
8362;BMP180;4218;48.326;14.304;2024-03-06T06:22:41;232397.00;;;235.00
8362;BMP180;4218;48.326;14.304;2024-03-06T06:25:07;232397.00;;;235.00
8362;BMP180;4218;48.326;14.304;2024-03-06T06:27:37;232397.00;;;235.00
8362;BMP180;4218;48.326;14.304;2024-03-06T06:30:03;232397.00;;;235.00
8362;BMP180;4218;48.326;14.304;2024-03-06T06:32:37;232397.00;;;235.00
8362;BMP180;4218;48.326;14.304;2024-03-06T06:35:06;232397.00;;;235.00
8362;BMP180;4218;48.326;14.304;2024-03-06T06:37:45;232397.00;;;235.00
8362;BMP180;4218;48.326;14.304;2024-03-06T06:40:44;232397.00;;;235.00
8362;BMP180;4218;48.326;14.304;2024-03-06T06:43:47;232397.00;;;235.00
8362;BMP180;4218;48.326;14.304;2024-03-06T06:46:23;232397.00;;;235.00
8362;BMP180;4218;48.326;14.304;2024-03-06T06:48:50;232397.00;;;235.00
8362;BMP180;4218;48.326;14.304;2024-03-06T06:51:27;232397.00;;;235.00
8362;BMP180;4218;48.326;14.304;2024-03-06T06:54:29;232397.00;;;235.00
8362;BMP180;4218;48.326;14.304;2024-03-06T06:57:02;232397.00;;;235.00
8362;BMP180;4218;48.326;14.304;2024-03-06T06:59:57;232397.00;;;235.00
8362;BMP180;4218;48.326;14.304;2024-03-06T07:02:52;232397.00;;;235.00
8362;BMP180;4218;48.326;14.304;2024-03-06T07:05:18;232397.00;;;235.00
8362;BMP180;4218;48.326;14.304;2024-03-06T07:07:43;232397.00;;;235.00
8362;BMP180;4218;48.326;14.304;2024-03-06T07:10:09;232397.00;;;235.00
8362;BMP180;4218;48.326;14.304;2024-03-06T07:12:35;232397.00;;;235.00
8362;BMP180;4218;48.326;14.304;2024-03-06T07:15:00;232397.00;;;235.00
8362;BMP180;4218;48.326;14.304;2024-03-06T07:17:26;232397.00;;;235.00
8362;BMP180;4218;48.326;14.304;2024-03-06T08:57:44;232397.00;;;235.00
8362;BMP180;4218;48.326;14.304;2024-03-06T09:00:17;232397.00;;;235.00
8362;BMP180;4218;48.326;14.304;2024-03-06T10:11:11;232397.00;;;235.00
8362;BMP180;4218;48.326;14.304;2024-03-06T10:27:31;232397.00;;;235.00
8362;BMP180;4218;48.326;14.304;2024-03-06T10:48:13;232397.00;;;235.00
8362;BMP180;4218;48.326;14.304;2024-03-06T10:50:50;232397.00;;;235.00
8362;BMP180;4218;48.326;14.304;2024-03-06T10:53:17;232397.00;;;235.00
8362;BMP180;4218;48.326;14.304;2024-03-06T10:55:46;232397.00;;;235.00
8362;BMP180;4218;48.326;14.304;2024-03-06T10:58:12;232397.00;;;235.00
8362;BMP180;4218;48.326;14.304;2024-03-06T11:00:58;232397.00;;;235.00
8362;BMP180;4218;48.326;14.304;2024-03-06T11:03:29;232397.00;;;235.00
8362;BMP180;4218;48.326;14.304;2024-03-06T11:06:36;232397.00;;;235.00
8362;BMP180;4218;48.326;14.304;2024-03-06T11:10:01;232397.00;;;235.00
8362;BMP180;4218;48.326;14.304;2024-03-06T11:33:12;232397.00;;;235.00
8362;BMP180;4218;48.326;14.304;2024-03-06T14:02:20;98607.00;;;9.60
8362;BMP180;4218;48.326;14.304;2024-03-06T14:04:46;98606.00;;;9.70
8362;BMP180;4218;48.326;14.304;2024-03-06T14:12:15;98598.00;;;9.60
8362;BMP180;4218;48.326;14.304;2024-03-06T14:14:43;98604.00;;;9.70
8362;BMP180;4218;48.326;14.304;2024-03-06T14:17:10;98600.00;;;9.90
8362;BMP180;4218;48.326;14.304;2024-03-06T14:19:37;98599.00;;;9.70
8362;BMP180;4218;48.326;14.304;2024-03-06T14:22:17;98594.00;;;9.60
8362;BMP180;4218;48.326;14.304;2024-03-06T14:25:18;98598.00;;;9.90
8362;BMP180;4218;48.326;14.304;2024-03-06T14:28:20;98600.00;;;9.90
8362;BMP180;4218;48.326;14.304;2024-03-06T14:30:47;98595.00;;;9.80
8362;BMP180;4218;48.326;14.304;2024-03-06T14:33:23;98614.00;;;9.90
8362;BMP180;4218;48.326;14.304;2024-03-06T14:36:15;98592.00;;;9.80
8362;BMP180;4218;48.326;14.304;2024-03-06T14:41:16;98591.00;;;9.80
8362;BMP180;4218;48.326;14.304;2024-03-06T14:43:42;98598.00;;;9.70
8362;BMP180;4218;48.326;14.304;2024-03-06T14:46:10;98594.00;;;9.50
8362;BMP180;4218;48.326;14.304;2024-03-06T14:48:39;98591.00;;;9.40
8362;BMP180;4218;48.326;14.304;2024-03-06T14:51:06;98618.00;;;9.40
8362;BMP180;4218;48.326;14.304;2024-03-06T14:53:35;98611.00;;;9.30
8362;BMP180;4218;48.326;14.304;2024-03-06T14:56:03;98621.00;;;9.30
8362;BMP180;4218;48.326;14.304;2024-03-06T14:58:29;98605.00;;;9.30
8362;BMP180;4218;48.326;14.304;2024-03-06T15:00:54;98603.00;;;9.30
8362;BMP180;4218;48.326;14.304;2024-03-06T15:03:20;98617.00;;;9.30
8362;BMP180;4218;48.326;14.304;2024-03-06T15:05:57;98620.00;;;9.40
8362;BMP180;4218;48.326;14.304;2024-03-06T15:08:22;98602.00;;;9.50
8362;BMP180;4218;48.326;14.304;2024-03-06T15:10:50;98618.00;;;9.40
8362;BMP180;4218;48.326;14.304;2024-03-06T15:18:59;98620.00;;;9.40
8362;BMP180;4218;48.326;14.304;2024-03-06T15:21:25;98613.00;;;9.50
8362;BMP180;4218;48.326;14.304;2024-03-06T15:23:50;98613.00;;;9.70
8362;BMP180;4218;48.326;14.304;2024-03-06T15:26:16;98622.00;;;9.40
8362;BMP180;4218;48.326;14.304;2024-03-06T15:28:42;98616.00;;;9.70
8362;BMP180;4218;48.326;14.304;2024-03-06T15:31:07;98607.00;;;9.70
8362;BMP180;4218;48.326;14.304;2024-03-06T15:33:33;98625.00;;;9.50
8362;BMP180;4218;48.326;14.304;2024-03-06T15:35:59;98620.00;;;9.70
8362;BMP180;4218;48.326;14.304;2024-03-06T15:38:26;98623.00;;;9.80
8362;BMP180;4218;48.326;14.304;2024-03-06T15:40:54;98608.00;;;9.60
8362;BMP180;4218;48.326;14.304;2024-03-06T15:43:20;98614.00;;;9.50
8362;BMP180;4218;48.326;14.304;2024-03-06T15:45:45;98621.00;;;9.50
8362;BMP180;4218;48.326;14.304;2024-03-06T15:48:11;98629.00;;;9.60
8362;BMP180;4218;48.326;14.304;2024-03-06T15:50:43;98633.00;;;9.40
8362;BMP180;4218;48.326;14.304;2024-03-06T15:53:08;98615.00;;;9.20
8362;BMP180;4218;48.326;14.304;2024-03-06T15:55:35;98624.00;;;9.10
8362;BMP180;4218;48.326;14.304;2024-03-06T15:58:03;98627.00;;;9.10
8362;BMP180;4218;48.326;14.304;2024-03-06T16:00:34;98630.00;;;9.00
8362;BMP180;4218;48.326;14.304;2024-03-06T16:03:04;98628.00;;;9.00
8362;BMP180;4218;48.326;14.304;2024-03-06T20:36:45;98743.00;;;8.20
8362;BMP180;4218;48.326;14.304;2024-03-06T20:39:11;98750.00;;;8.10
8362;BMP180;4218;48.326;14.304;2024-03-06T20:41:47;98760.00;;;8.10
8362;BMP180;4218;48.326;14.304;2024-03-06T20:44:13;98762.00;;;8.00
8362;BMP180;4218;48.326;14.304;2024-03-06T20:46:39;98766.00;;;7.90
8362;BMP180;4218;48.326;14.304;2024-03-06T20:49:05;98761.00;;;7.80
8362;BMP180;4218;48.326;14.304;2024-03-06T20:51:32;98744.00;;;7.90
8362;BMP180;4218;48.326;14.304;2024-03-06T20:53:58;98736.00;;;7.90
8362;BMP180;4218;48.326;14.304;2024-03-06T20:56:29;98751.00;;;7.80
8362;BMP180;4218;48.326;14.304;2024-03-06T20:58:54;98757.00;;;7.70
8362;BMP180;4218;48.326;14.304;2024-03-06T21:01:22;98755.00;;;7.80
8362;BMP180;4218;48.326;14.304;2024-03-06T21:03:48;98754.00;;;7.80
8362;BMP180;4218;48.326;14.304;2024-03-06T21:06:13;98760.00;;;7.80
8362;BMP180;4218;48.326;14.304;2024-03-06T21:08:38;98754.00;;;7.80
8362;BMP180;4218;48.326;14.304;2024-03-06T21:11:04;98759.00;;;7.70
8362;BMP180;4218;48.326;14.304;2024-03-06T21:13:32;98760.00;;;7.80
8362;BMP180;4218;48.326;14.304;2024-03-06T21:15:58;98770.00;;;7.70
8362;BMP180;4218;48.326;14.304;2024-03-06T21:18:23;98767.00;;;7.60
8362;BMP180;4218;48.326;14.304;2024-03-06T21:20:49;98765.00;;;7.60
8362;BMP180;4218;48.326;14.304;2024-03-06T21:23:14;98766.00;;;7.60
8362;BMP180;4218;48.326;14.304;2024-03-06T21:25:40;98766.00;;;7.60
8362;BMP180;4218;48.326;14.304;2024-03-06T21:28:06;98766.00;;;7.50
8362;BMP180;4218;48.326;14.304;2024-03-06T21:30:32;98770.00;;;7.50
8362;BMP180;4218;48.326;14.304;2024-03-06T21:32:59;98770.00;;;7.50
8362;BMP180;4218;48.326;14.304;2024-03-06T21:35:24;98779.00;;;7.50
8362;BMP180;4218;48.326;14.304;2024-03-06T21:37:50;98778.00;;;7.40
8362;BMP180;4218;48.326;14.304;2024-03-06T21:40:16;98768.00;;;7.60
8362;BMP180;4218;48.326;14.304;2024-03-06T21:42:41;98775.00;;;7.60
8362;BMP180;4218;48.326;14.304;2024-03-06T21:45:08;98791.00;;;7.50
8362;BMP180;4218;48.326;14.304;2024-03-06T21:47:34;98786.00;;;7.20
8362;BMP180;4218;48.326;14.304;2024-03-06T21:49:59;98781.00;;;7.10
8362;BMP180;4218;48.326;14.304;2024-03-06T21:52:25;98784.00;;;7.00
8362;BMP180;4218;48.326;14.304;2024-03-06T21:54:51;98797.00;;;6.90
8362;BMP180;4218;48.326;14.304;2024-03-06T21:57:16;98796.00;;;6.90
8362;BMP180;4218;48.326;14.304;2024-03-06T21:59:42;98798.00;;;6.80
8362;BMP180;4218;48.326;14.304;2024-03-06T22:02:09;98795.00;;;6.90
8362;BMP180;4218;48.326;14.304;2024-03-06T22:04:36;98798.00;;;6.90
8362;BMP180;4218;48.326;14.304;2024-03-06T22:07:01;98805.00;;;6.80
8362;BMP180;4218;48.326;14.304;2024-03-06T22:09:28;98809.00;;;6.90
8362;BMP180;4218;48.326;14.304;2024-03-06T22:11:54;98805.00;;;6.80
8362;BMP180;4218;48.326;14.304;2024-03-06T22:14:20;98805.00;;;6.80
8362;BMP180;4218;48.326;14.304;2024-03-06T22:16:45;98810.00;;;6.80
8362;BMP180;4218;48.326;14.304;2024-03-06T22:19:12;98812.00;;;6.80
8362;BMP180;4218;48.326;14.304;2024-03-06T22:21:38;98810.00;;;6.60
8362;BMP180;4218;48.326;14.304;2024-03-06T22:24:04;98819.00;;;6.90
8362;BMP180;4218;48.326;14.304;2024-03-06T22:26:29;98807.00;;;6.80
8362;BMP180;4218;48.326;14.304;2024-03-06T22:28:55;98809.00;;;6.90
8362;BMP180;4218;48.326;14.304;2024-03-06T22:31:22;98807.00;;;7.00
8362;BMP180;4218;48.326;14.304;2024-03-06T22:33:47;98794.00;;;6.90
8362;BMP180;4218;48.326;14.304;2024-03-06T22:36:17;98782.00;;;6.90
8362;BMP180;4218;48.326;14.304;2024-03-06T22:38:44;98780.00;;;6.90
8362;BMP180;4218;48.326;14.304;2024-03-06T22:41:19;98783.00;;;7.00
8362;BMP180;4218;48.326;14.304;2024-03-06T22:43:45;98775.00;;;7.00
8362;BMP180;4218;48.326;14.304;2024-03-06T22:46:10;98787.00;;;6.90
8362;BMP180;4218;48.326;14.304;2024-03-06T22:48:36;98780.00;;;7.00
8362;BMP180;4218;48.326;14.304;2024-03-06T22:51:01;98786.00;;;6.90
8362;BMP180;4218;48.326;14.304;2024-03-06T22:53:27;98783.00;;;6.90
8362;BMP180;4218;48.326;14.304;2024-03-06T22:55:52;98781.00;;;6.70
8362;BMP180;4218;48.326;14.304;2024-03-06T22:58:18;98783.00;;;6.80
8362;BMP180;4218;48.326;14.304;2024-03-06T23:00:43;98791.00;;;6.80
8362;BMP180;4218;48.326;14.304;2024-03-06T23:03:10;98784.00;;;6.90
8362;BMP180;4218;48.326;14.304;2024-03-06T23:05:36;98785.00;;;7.00
8362;BMP180;4218;48.326;14.304;2024-03-06T23:08:02;98777.00;;;7.00
8362;BMP180;4218;48.326;14.304;2024-03-06T23:10:29;98775.00;;;6.80
8362;BMP180;4218;48.326;14.304;2024-03-06T23:12:55;98780.00;;;6.80
8362;BMP180;4218;48.326;14.304;2024-03-06T23:15:20;98774.00;;;6.80
8362;BMP180;4218;48.326;14.304;2024-03-06T23:17:47;98783.00;;;6.80
8362;BMP180;4218;48.326;14.304;2024-03-06T23:20:13;98785.00;;;6.80
8362;BMP180;4218;48.326;14.304;2024-03-06T23:22:43;98782.00;;;6.60
8362;BMP180;4218;48.326;14.304;2024-03-06T23:25:12;98775.00;;;6.50
8362;BMP180;4218;48.326;14.304;2024-03-06T23:27:41;98780.00;;;6.60
8362;BMP180;4218;48.326;14.304;2024-03-06T23:30:12;98782.00;;;6.60
8362;BMP180;4218;48.326;14.304;2024-03-06T23:32:38;98792.00;;;6.60
8362;BMP180;4218;48.326;14.304;2024-03-06T23:35:06;98783.00;;;6.50
8362;BMP180;4218;48.326;14.304;2024-03-06T23:37:32;98796.00;;;6.20
8362;BMP180;4218;48.326;14.304;2024-03-06T23:40:02;98792.00;;;6.10
8362;BMP180;4218;48.326;14.304;2024-03-06T23:42:30;98796.00;;;6.00
8362;BMP180;4218;48.326;14.304;2024-03-06T23:44:56;98785.00;;;6.10
8362;BMP180;4218;48.326;14.304;2024-03-06T23:47:21;98793.00;;;6.00
8362;BMP180;4218;48.326;14.304;2024-03-06T23:49:50;98795.00;;;5.80
8362;BMP180;4218;48.326;14.304;2024-03-06T23:52:15;98798.00;;;5.90
8362;BMP180;4218;48.326;14.304;2024-03-06T23:54:42;98795.00;;;5.80
8362;BMP180;4218;48.326;14.304;2024-03-06T23:57:08;98802.00;;;5.70
8362;BMP180;4218;48.326;14.304;2024-03-06T23:59:34;98799.00;;;5.60
